createdAt,value
2022-11-15T00:01:26.969Z,94994.00
2022-11-15T00:04:12.304Z,94990.25
2022-11-15T00:06:57.511Z,94989.44
2022-11-15T00:09:45.987Z,94985.88
2022-11-15T00:12:31.681Z,94980.16
2022-11-15T00:15:17.162Z,94973.66
2022-11-15T00:18:02.358Z,94976.41
2022-11-15T00:20:47.608Z,94978.63
2022-11-15T00:23:34.685Z,94977.53
2022-11-15T00:26:20.040Z,94974.06
2022-11-15T00:29:05.143Z,94981.91
2022-11-15T00:31:50.338Z,94979.66
2022-11-15T00:34:35.544Z,94985.16
2022-11-15T00:37:20.926Z,94982.41
2022-11-15T00:40:06.960Z,94982.53
2022-11-15T00:42:52.227Z,94976.78
2022-11-15T00:45:37.650Z,94978.00
2022-11-15T00:48:23.075Z,94963.91
2022-11-15T00:51:08.609Z,94968.09
2022-11-15T00:53:53.808Z,94959.16
2022-11-15T00:56:39.098Z,94950.91
2022-11-15T00:59:24.173Z,94953.03
2022-11-15T01:02:09.270Z,94955.47
2022-11-15T01:04:54.556Z,94961.50
2022-11-15T01:07:39.720Z,94955.28
2022-11-15T01:10:26.771Z,94953.88
2022-11-15T01:13:11.894Z,94950.13
2022-11-15T01:15:56.963Z,94946.56
2022-11-15T01:18:42.256Z,94946.25
2022-11-15T01:21:31.985Z,94945.53
2022-11-15T01:24:18.066Z,94943.09
2022-11-15T01:27:03.251Z,94942.09
2022-11-15T01:29:48.633Z,94936.59
2022-11-15T01:32:33.987Z,94934.75
2022-11-15T01:35:19.386Z,94937.47
2022-11-15T01:38:04.556Z,94935.28
2022-11-15T01:40:50.287Z,94923.78
2022-11-15T01:43:37.492Z,94926.31
2022-11-15T01:46:22.710Z,94922.16
2022-11-15T01:49:15.537Z,94919.28
2022-11-15T01:52:02.761Z,94916.63
2022-11-15T01:54:51.816Z,94907.91
2022-11-15T01:57:37.342Z,94908.75
2022-11-15T02:00:22.559Z,94908.19
2022-11-15T02:03:07.960Z,94898.72
2022-11-15T02:05:54.135Z,94904.91
2022-11-15T02:08:39.336Z,94902.88
2022-11-15T02:11:24.632Z,94896.31
2022-11-15T02:14:11.257Z,94897.13
2022-11-15T02:17:02.690Z,94889.88
2022-11-15T02:20:12.824Z,94889.44
2022-11-15T02:23:07.193Z,94888.72
2022-11-15T02:26:29.654Z,94885.38
2022-11-15T02:29:33.225Z,94886.38
2022-11-15T02:32:41.995Z,94877.94
2022-11-15T02:35:43.894Z,94875.28
2022-11-15T02:38:54.354Z,94871.97
2022-11-15T02:41:50.085Z,94882.03
2022-11-15T02:44:41.017Z,94871.34
2022-11-15T02:47:28.855Z,94870.69
2022-11-15T02:50:19.503Z,94858.06
2022-11-15T02:53:04.711Z,94862.81
2022-11-15T02:55:52.088Z,94861.25
2022-11-15T02:58:52.412Z,94858.00
2022-11-15T03:02:08.359Z,94846.66
2022-11-15T03:05:18.742Z,94856.63
2022-11-15T03:08:23.526Z,94854.09
2022-11-15T03:11:16.550Z,94849.91
2022-11-15T03:14:24.410Z,94836.41
2022-11-15T03:17:12.798Z,94833.31
2022-11-15T03:20:01.336Z,94842.75
2022-11-15T03:22:49.246Z,94833.91
2022-11-15T03:25:37.610Z,94832.09
2022-11-15T03:28:45.213Z,94827.13
2022-11-15T03:31:51.524Z,94822.75
2022-11-15T03:34:58.468Z,94818.56
2022-11-15T03:37:52.454Z,94815.84
2022-11-15T03:41:02.236Z,94814.31
2022-11-15T03:43:50.474Z,94809.81
2022-11-15T03:46:46.220Z,94802.34
2022-11-15T03:49:35.307Z,94807.41
2022-11-15T03:52:22.760Z,94809.84
2022-11-15T03:55:11.759Z,94799.59
2022-11-15T03:58:00.046Z,94802.34
2022-11-15T04:00:45.185Z,94798.69
2022-11-15T04:03:30.997Z,94800.75
2022-11-15T04:06:16.291Z,94805.34
2022-11-15T04:09:01.696Z,94801.72
2022-11-15T04:11:46.829Z,94802.31
2022-11-15T04:14:31.991Z,94801.84
2022-11-15T04:17:17.135Z,94804.59
2022-11-15T04:20:25.472Z,94805.63
2022-11-15T04:23:35.769Z,94793.00
2022-11-15T04:26:23.694Z,94796.75
2022-11-15T04:29:27.431Z,94794.44
2022-11-15T04:32:12.829Z,94789.03
2022-11-15T04:34:58.042Z,94785.97
2022-11-15T04:37:48.971Z,94789.16
2022-11-15T04:40:35.510Z,94790.56
2022-11-15T04:43:20.458Z,94787.38
2022-11-15T04:46:05.493Z,94786.63
2022-11-15T04:48:56.955Z,94784.38
2022-11-15T04:51:43.823Z,94783.69
2022-11-15T04:54:29.165Z,94775.63
2022-11-15T04:57:15.065Z,94778.44
2022-11-15T05:00:00.255Z,94775.38
2022-11-15T05:03:03.928Z,94764.59
2022-11-15T05:05:49.279Z,94764.53
2022-11-15T05:08:34.722Z,94755.44
2022-11-15T05:11:20.019Z,94746.81
2022-11-15T05:14:05.443Z,94752.00
2022-11-15T05:16:50.952Z,94746.28
2022-11-15T05:19:36.177Z,94747.41
2022-11-15T05:22:22.502Z,94756.13
2022-11-15T05:25:08.284Z,94741.19
2022-11-15T05:27:53.615Z,94738.03
2022-11-15T05:30:38.836Z,94737.88
2022-11-15T05:33:24.921Z,94738.63
2022-11-15T05:36:35.029Z,94731.50
2022-11-15T05:39:20.149Z,94727.53
2022-11-15T05:42:14.402Z,94725.19
2022-11-15T05:45:00.767Z,94722.44
2022-11-15T05:47:47.925Z,94724.88
2022-11-15T05:50:34.054Z,94721.81
2022-11-15T05:53:23.764Z,94715.88
2022-11-15T05:56:10.487Z,94720.00
2022-11-15T05:58:59.686Z,94707.72
2022-11-15T06:01:45.313Z,94706.38
2022-11-15T06:04:30.495Z,94716.09
2022-11-15T06:07:15.919Z,94707.81
2022-11-15T06:10:01.228Z,94707.75
2022-11-15T06:12:46.653Z,94702.47
2022-11-15T06:15:34.526Z,94700.56
2022-11-15T06:18:19.461Z,94712.78
2022-11-15T06:21:05.495Z,94722.56
2022-11-15T06:23:50.781Z,94719.66
2022-11-15T06:26:36.052Z,94719.97
2022-11-15T06:29:21.435Z,94717.44
2022-11-15T06:32:06.943Z,94713.16
2022-11-15T06:34:51.961Z,94710.53
2022-11-15T06:37:37.114Z,94714.41
2022-11-15T06:40:22.657Z,94725.28
2022-11-15T06:43:08.545Z,94734.97
2022-11-15T06:45:53.778Z,94742.88
2022-11-15T06:48:39.385Z,94749.22
2022-11-15T06:51:24.352Z,94741.94
2022-11-15T06:54:09.526Z,94737.44
2022-11-15T06:56:54.875Z,94732.19
2022-11-15T06:59:40.805Z,94728.63
2022-11-15T07:02:26.474Z,94726.31
2022-11-15T07:05:12.384Z,94719.84
2022-11-15T07:07:58.902Z,94721.69
2022-11-15T07:10:43.889Z,94710.91
2022-11-15T07:13:30.880Z,94716.91
2022-11-15T07:16:16.577Z,94714.41
2022-11-15T07:19:01.880Z,94707.78
2022-11-15T07:21:47.675Z,94713.06
2022-11-15T07:24:32.946Z,94713.47
2022-11-15T07:27:18.130Z,94716.72
2022-11-15T07:30:04.328Z,94709.78
2022-11-15T07:32:56.813Z,94700.13
2022-11-15T07:35:43.501Z,94695.84
2022-11-15T07:38:29.875Z,94697.81
2022-11-15T07:41:15.394Z,94697.72
2022-11-15T07:44:01.303Z,94702.25
2022-11-15T07:46:46.561Z,94697.41
2022-11-15T07:49:31.774Z,94696.09
2022-11-15T07:52:17.092Z,94703.75
2022-11-15T07:55:02.464Z,94703.59
2022-11-15T07:57:47.768Z,94707.53
2022-11-15T08:00:33.181Z,94699.47
2022-11-15T08:03:18.542Z,94701.94
2022-11-15T08:06:05.118Z,94697.53
2022-11-15T08:08:50.124Z,94700.22
2022-11-15T08:11:35.317Z,94701.19
2022-11-15T08:14:22.937Z,94714.03
2022-11-15T08:17:07.887Z,94704.25
2022-11-15T08:19:53.057Z,94697.63
2022-11-15T08:22:41.209Z,94695.91
2022-11-15T08:25:27.579Z,94686.78
2022-11-15T08:28:20.238Z,94682.16
2022-11-15T08:31:06.086Z,94672.53
2022-11-15T08:33:51.532Z,94674.75
2022-11-15T08:36:44.592Z,94665.91
2022-11-15T08:39:31.517Z,94656.72
2022-11-15T08:42:19.956Z,94661.22
2022-11-15T08:45:05.861Z,94655.00
2022-11-15T08:47:54.139Z,94658.38
2022-11-15T08:50:39.690Z,94648.09
2022-11-15T08:53:25.126Z,94639.59
2022-11-15T08:56:12.293Z,94639.13
2022-11-15T08:58:57.403Z,94641.50
2022-11-15T09:01:42.643Z,94632.31
2022-11-15T09:04:27.850Z,94624.13
2022-11-15T09:07:15.003Z,94620.72
2022-11-15T09:10:00.129Z,94617.81
2022-11-15T09:12:45.251Z,94611.22
2022-11-15T09:15:30.930Z,94601.13
2022-11-15T09:18:15.995Z,94601.22
2022-11-15T09:21:01.510Z,94605.00
2022-11-15T09:23:46.543Z,94605.19
2022-11-15T09:26:31.796Z,94608.78
2022-11-15T09:29:17.150Z,94606.78
2022-11-15T09:32:03.047Z,94612.25
2022-11-15T09:34:48.302Z,94607.47
2022-11-15T09:37:33.887Z,94613.69
2022-11-15T09:40:21.400Z,94604.31
2022-11-15T09:43:39.113Z,94598.81
2022-11-15T09:46:33.263Z,94605.63
2022-11-15T09:49:20.362Z,94604.72
2022-11-15T09:52:12.895Z,94598.03
2022-11-15T09:54:58.211Z,94586.13
2022-11-15T09:57:33.546Z,94590.22
2022-11-15T10:00:43.951Z,94583.31
2022-11-15T10:03:05.554Z,94589.00
2022-11-15T10:05:37.235Z,94577.94
2022-11-15T10:08:13.097Z,94575.81
2022-11-15T10:10:48.840Z,94563.91
2022-11-15T10:13:24.005Z,94564.06
2022-11-15T10:15:54.402Z,94560.03
2022-11-15T10:18:35.836Z,94548.31
2022-11-15T10:21:38.888Z,94541.50
2022-11-15T10:24:12.663Z,94539.25
2022-11-15T10:26:46.540Z,94536.25
2022-11-15T10:29:19.314Z,94524.47
2022-11-15T10:31:45.871Z,94517.03
2022-11-15T10:34:21.568Z,94510.84
2022-11-15T10:36:59.515Z,94507.59
2022-11-15T10:39:26.392Z,94503.94
2022-11-15T10:41:53.160Z,94498.25
2022-11-15T10:44:23.202Z,94490.31
2022-11-15T10:47:07.958Z,94486.47
2022-11-15T10:49:35.890Z,94477.41
2022-11-15T10:52:21.405Z,94472.28
2022-11-15T10:55:06.198Z,94467.19
2022-11-15T10:57:37.513Z,94466.28
2022-11-15T11:00:05.902Z,94446.66
2022-11-15T11:02:47.696Z,94454.88
2022-11-15T11:05:39.949Z,94449.44
2022-11-15T11:08:14.039Z,94446.22
2022-11-15T11:10:58.555Z,94440.06
2022-11-15T11:13:40.048Z,94441.94
2022-11-15T11:16:15.761Z,94433.00
2022-11-15T11:19:16.491Z,94423.50
2022-11-15T11:21:58.301Z,94422.28
2022-11-15T11:25:06.079Z,94416.25
2022-11-15T11:27:44.714Z,94420.91
2022-11-15T11:30:30.042Z,94409.59
2022-11-15T11:33:13.775Z,94411.41
2022-11-15T11:35:58.711Z,94408.41
2022-11-15T11:38:51.304Z,94403.69
2022-11-15T11:42:00.098Z,94405.44
2022-11-15T11:44:44.576Z,94401.91
2022-11-15T11:47:22.426Z,94404.50
2022-11-15T11:49:57.143Z,94405.56
2022-11-15T11:52:39.482Z,94403.31
2022-11-15T11:55:23.992Z,94392.44
2022-11-15T11:58:13.164Z,94382.09
2022-11-15T12:00:45.630Z,94384.13
2022-11-15T12:03:33.643Z,94378.31
2022-11-15T12:06:11.790Z,94375.63
2022-11-15T12:08:54.371Z,94371.53
2022-11-15T12:11:39.604Z,94378.69
2022-11-15T12:14:17.900Z,94372.72
2022-11-15T12:16:44.603Z,94370.19
2022-11-15T12:19:11.187Z,94375.63
2022-11-15T12:21:46.912Z,94366.19
2022-11-15T12:24:21.372Z,94358.75
2022-11-15T12:27:24.907Z,94351.66
2022-11-15T12:29:57.479Z,94353.47
2022-11-15T12:32:27.835Z,94350.56
2022-11-15T12:34:55.833Z,94347.56
2022-11-15T12:37:38.604Z,94347.34
2022-11-15T12:40:05.103Z,94350.13
2022-11-15T12:42:31.639Z,94352.13
2022-11-15T12:45:00.128Z,94345.22
2022-11-15T12:47:27.786Z,94347.28
2022-11-15T12:49:57.588Z,94346.34
2022-11-15T12:52:24.160Z,94353.84
2022-11-15T12:54:56.615Z,94350.94
2022-11-15T12:57:29.293Z,94345.34
2022-11-15T13:00:02.888Z,94355.53
2022-11-15T13:02:41.371Z,94354.44
2022-11-15T13:05:20.384Z,94353.53
2022-11-15T13:07:50.053Z,94349.13
2022-11-15T13:10:16.613Z,94342.84
2022-11-15T13:12:45.907Z,94351.38
2022-11-15T13:15:12.454Z,94343.78
2022-11-15T13:17:48.935Z,94351.09
2022-11-15T13:20:15.533Z,94347.91
2022-11-15T13:23:01.911Z,94348.69
2022-11-15T13:25:40.581Z,94357.16
2022-11-15T13:28:16.203Z,94362.59
2022-11-15T13:30:56.348Z,94364.63
2022-11-15T13:33:36.755Z,94361.06
2022-11-15T13:36:16.402Z,94355.03
2022-11-15T13:38:43.566Z,94360.41
2022-11-15T13:41:21.192Z,94357.16
2022-11-15T13:43:50.337Z,94352.31
2022-11-15T13:46:26.057Z,94363.56
2022-11-15T13:49:01.704Z,94358.47
2022-11-15T13:51:31.175Z,94364.50
2022-11-15T13:54:10.319Z,94364.13
2022-11-15T13:56:37.781Z,94364.91
2022-11-15T13:59:22.772Z,94353.81
2022-11-15T14:01:51.751Z,94363.16
2022-11-15T14:04:22.887Z,94363.72
2022-11-15T14:06:53.956Z,94371.88
2022-11-15T14:09:38.105Z,94366.00
2022-11-15T14:12:25.305Z,94372.03
2022-11-15T14:14:52.115Z,94363.88
2022-11-15T14:17:34.073Z,94376.59
2022-11-15T14:20:00.861Z,94371.34
2022-11-15T14:22:31.210Z,94369.72
2022-11-15T14:25:19.816Z,94372.72
2022-11-15T14:28:24.946Z,94371.47
2022-11-15T14:30:58.366Z,94375.81
2022-11-15T14:33:36.457Z,94365.91
2022-11-15T14:36:12.232Z,94370.94
2022-11-15T14:38:38.774Z,94371.28
2022-11-15T14:41:06.696Z,94367.91
2022-11-15T14:43:33.301Z,94367.47
2022-11-15T14:46:00.280Z,94364.69
2022-11-15T14:48:26.858Z,94366.94
2022-11-15T14:50:53.415Z,94364.69
2022-11-15T14:53:23.149Z,94359.13
2022-11-15T14:55:50.034Z,94361.38
2022-11-15T14:58:16.597Z,94355.63
2022-11-15T15:00:43.300Z,94348.84
2022-11-15T15:03:10.272Z,94357.56
2022-11-15T15:05:42.491Z,94357.03
2022-11-15T15:08:10.736Z,94358.34
2022-11-15T15:10:42.982Z,94348.22
2022-11-15T15:13:13.812Z,94343.69
2022-11-15T15:15:40.378Z,94355.47
2022-11-15T15:18:09.377Z,94361.22
2022-11-15T15:20:39.184Z,94357.53
2022-11-15T15:23:06.363Z,94349.25
2022-11-15T15:25:35.808Z,94349.91
2022-11-15T15:28:03.414Z,94348.59
2022-11-15T15:30:31.174Z,94350.06
2022-11-15T15:32:57.802Z,94347.94
2022-11-15T15:35:27.451Z,94353.94
2022-11-15T15:37:54.812Z,94351.28
2022-11-15T15:40:23.970Z,94349.69
2022-11-15T15:42:51.198Z,94350.84
2022-11-15T15:45:20.362Z,94347.91
2022-11-15T15:47:47.789Z,94343.44
2022-11-15T15:50:27.974Z,94340.69
2022-11-15T15:52:58.166Z,94342.81
2022-11-15T15:55:25.893Z,94331.84
2022-11-15T15:57:55.574Z,94331.03
2022-11-15T16:00:26.474Z,94318.31
2022-11-15T16:02:54.744Z,94315.44
2022-11-15T16:05:22.604Z,94320.25
2022-11-15T16:07:49.611Z,94320.53
2022-11-15T16:10:23.986Z,94318.41
2022-11-15T16:12:50.759Z,94308.13
2022-11-15T16:15:18.388Z,94304.88
2022-11-15T16:17:50.203Z,94289.75
2022-11-15T16:20:33.766Z,94290.22
2022-11-15T16:23:07.284Z,94278.53
2022-11-15T16:25:40.905Z,94274.34
2022-11-15T16:28:18.720Z,94273.00
2022-11-15T16:30:45.386Z,94273.84
2022-11-15T16:33:11.986Z,94274.81
2022-11-15T16:35:38.571Z,94276.88
2022-11-15T16:38:05.127Z,94269.38
2022-11-15T16:40:36.078Z,94270.47
2022-11-15T16:43:04.475Z,94271.88
2022-11-15T16:45:31.910Z,94269.63
2022-11-15T16:47:58.705Z,94266.06
2022-11-15T16:50:30.948Z,94261.84
2022-11-15T16:52:59.147Z,94264.50
2022-11-15T16:55:28.204Z,94265.53
2022-11-15T16:57:57.926Z,94253.66
2022-11-15T17:00:25.650Z,94263.88
2022-11-15T17:02:53.370Z,94267.94
2022-11-15T17:05:22.644Z,94266.34
2022-11-15T17:07:52.329Z,94259.28
2022-11-15T17:10:18.945Z,94258.59
2022-11-15T17:12:45.534Z,94258.38
2022-11-15T17:15:13.557Z,94260.09
2022-11-15T17:17:41.017Z,94255.19
2022-11-15T17:20:14.317Z,94257.75
2022-11-15T17:22:40.903Z,94261.69
2022-11-15T17:25:07.740Z,94257.94
2022-11-15T17:27:34.404Z,94253.06
2022-11-15T17:30:00.981Z,94265.72
2022-11-15T17:32:27.538Z,94253.53
2022-11-15T17:34:54.114Z,94250.22
2022-11-15T17:37:20.656Z,94249.91
2022-11-15T17:39:47.256Z,94244.84
2022-11-15T17:42:13.834Z,94238.78
2022-11-15T17:44:40.450Z,94233.56
2022-11-15T17:47:08.472Z,94241.28
2022-11-15T17:49:39.333Z,94226.00
2022-11-15T17:52:06.090Z,94232.84
2022-11-15T17:54:32.631Z,94227.06
2022-11-15T17:56:59.344Z,94215.03
2022-11-15T17:59:26.216Z,94214.47
2022-11-15T18:01:53.984Z,94213.78
2022-11-15T18:04:21.145Z,94211.22
2022-11-15T18:06:50.744Z,94206.03
2022-11-15T18:09:17.354Z,94203.06
2022-11-15T18:11:46.417Z,94200.63
2022-11-15T18:14:15.393Z,94199.34
2022-11-15T18:16:42.680Z,94201.53
2022-11-15T18:19:13.303Z,94201.59
2022-11-15T18:22:01.341Z,94192.38
2022-11-15T18:24:36.684Z,94188.50
2022-11-15T18:27:05.175Z,94192.88
2022-11-15T18:29:33.286Z,94186.16
2022-11-15T18:31:59.985Z,94188.81
2022-11-15T18:34:31.988Z,94191.91
2022-11-15T18:36:59.285Z,94190.97
2022-11-15T18:39:25.858Z,94189.16
2022-11-15T18:41:52.539Z,94184.91
2022-11-15T18:44:19.502Z,94179.56
2022-11-15T18:46:46.286Z,94185.38
2022-11-15T18:49:14.809Z,94180.81
2022-11-15T18:51:42.101Z,94181.31
2022-11-15T18:54:13.893Z,94172.38
2022-11-15T18:56:40.759Z,94175.81
2022-11-15T18:59:08.619Z,94174.13
2022-11-15T19:01:40.803Z,94167.06
2022-11-15T19:04:19.051Z,94167.56
2022-11-15T19:06:47.855Z,94166.00
2022-11-15T19:09:16.860Z,94153.78
2022-11-15T19:11:44.747Z,94162.66
2022-11-15T19:14:14.004Z,94157.66
2022-11-15T19:16:49.971Z,94149.66
2022-11-15T19:19:28.314Z,94147.16
2022-11-15T19:21:55.228Z,94142.53
2022-11-15T19:24:21.857Z,94141.88
2022-11-15T19:26:48.478Z,94135.25
2022-11-15T19:29:15.133Z,94131.88
2022-11-15T19:31:42.048Z,94132.19
2022-11-15T19:34:08.749Z,94129.13
2022-11-15T19:36:38.763Z,94126.19
2022-11-15T19:39:09.772Z,94123.94
2022-11-15T19:41:38.467Z,94126.03
2022-11-15T19:44:06.318Z,94120.72
2022-11-15T19:46:33.330Z,94127.28
2022-11-15T19:49:00.070Z,94125.81
2022-11-15T19:51:29.345Z,94123.56
2022-11-15T19:53:58.240Z,94117.97
2022-11-15T19:56:24.944Z,94114.94
2022-11-15T19:58:53.530Z,94122.31
2022-11-15T20:01:25.154Z,94120.66
2022-11-15T20:03:57.741Z,94125.47
2022-11-15T20:06:38.210Z,94115.19
2022-11-15T20:09:04.827Z,94117.41
2022-11-15T20:11:31.633Z,94117.88
2022-11-15T20:13:59.565Z,94113.53
2022-11-15T20:16:26.571Z,94109.94
2022-11-15T20:18:53.644Z,94106.72
2022-11-15T20:21:21.478Z,94098.34
2022-11-15T20:23:48.530Z,94106.47
2022-11-15T20:26:15.864Z,94104.56
2022-11-15T20:28:44.654Z,94096.06
2022-11-15T20:31:12.358Z,94097.69
2022-11-15T20:33:39.234Z,94091.69
2022-11-15T20:36:07.726Z,94097.72
2022-11-15T20:38:34.896Z,94095.00
2022-11-15T20:41:01.829Z,94087.38
2022-11-15T20:43:28.458Z,94081.94
2022-11-15T20:45:55.437Z,94070.72
2022-11-15T20:48:22.355Z,94068.97
2022-11-15T20:50:49.150Z,94064.59
2022-11-15T20:53:18.073Z,94056.59
2022-11-15T20:55:47.905Z,94052.94
2022-11-15T20:58:15.797Z,94052.84
2022-11-15T21:00:44.641Z,94050.28
2022-11-15T21:03:12.589Z,94040.63
2022-11-15T21:05:40.946Z,94029.97
2022-11-15T21:08:08.681Z,94036.44
2022-11-15T21:10:53.569Z,94025.59
2022-11-15T21:13:20.482Z,94017.41
2022-11-15T21:15:47.231Z,94013.72
2022-11-15T21:18:14.403Z,94019.91
2022-11-15T21:20:41.436Z,94018.09
2022-11-15T21:23:08.444Z,94004.91
2022-11-15T21:25:35.117Z,94002.72
2022-11-15T21:28:01.819Z,93996.38
2022-11-15T21:30:28.568Z,93995.22
2022-11-15T21:32:55.161Z,93998.09
2022-11-15T21:35:22.581Z,93989.53
2022-11-15T21:37:55.018Z,93983.47
2022-11-15T21:40:23.458Z,93987.22
2022-11-15T21:42:50.094Z,93985.63
2022-11-15T21:45:16.742Z,93981.84
2022-11-15T21:47:45.976Z,93987.41
2022-11-15T21:50:12.857Z,93980.41
2022-11-15T21:52:40.599Z,93974.50
2022-11-15T21:55:07.958Z,93973.25
2022-11-15T21:57:34.625Z,93973.56
2022-11-15T22:00:19.497Z,93968.72
2022-11-15T22:02:46.034Z,93973.47
2022-11-15T22:05:12.583Z,93965.78
2022-11-15T22:07:39.136Z,93968.34
2022-11-15T22:10:06.339Z,93960.38
2022-11-15T22:12:32.868Z,93958.25
2022-11-15T22:14:59.522Z,93956.66
2022-11-15T22:17:46.120Z,93950.91
2022-11-15T22:20:42.466Z,93947.22
2022-11-15T22:23:00.137Z,93945.47
2022-11-15T22:25:26.836Z,93941.63
2022-11-15T22:27:54.002Z,93943.19
2022-11-15T22:30:21.450Z,93951.38
2022-11-15T22:32:48.210Z,93944.63
2022-11-15T22:35:15.602Z,93948.66
2022-11-15T22:37:42.430Z,93939.38
2022-11-15T22:40:09.904Z,93939.72
2022-11-15T22:42:36.577Z,93922.25
2022-11-15T22:45:03.756Z,93922.59
2022-11-15T22:47:30.412Z,93920.03
2022-11-15T22:49:57.064Z,93924.72
2022-11-15T22:52:23.716Z,93920.00
2022-11-15T22:54:50.359Z,93922.81
2022-11-15T22:57:16.982Z,93917.19
2022-11-15T22:59:43.679Z,93918.44
2022-11-15T23:02:10.347Z,93910.41
2022-11-15T23:04:36.997Z,93915.09
2022-11-15T23:07:03.682Z,93901.66
2022-11-15T23:09:30.446Z,93891.13
2022-11-15T23:12:15.823Z,93885.41
2022-11-15T23:14:42.451Z,93886.53
2022-11-15T23:17:09.128Z,93878.03
2022-11-15T23:19:35.802Z,93877.88
2022-11-15T23:22:21.009Z,93869.41
2022-11-15T23:24:47.861Z,93861.03
2022-11-15T23:27:19.745Z,93859.72
2022-11-15T23:30:05.525Z,93857.94
2022-11-15T23:32:51.181Z,93847.94
2022-11-15T23:35:18.072Z,93829.53
2022-11-15T23:37:44.971Z,93828.75
2022-11-15T23:40:12.294Z,93814.22
2022-11-15T23:42:38.955Z,93817.47
2022-11-15T23:45:06.334Z,93805.91
2022-11-15T23:47:32.976Z,93806.84
2022-11-15T23:49:59.581Z,93810.84
2022-11-15T23:52:26.288Z,93809.38
2022-11-15T23:54:55.518Z,93798.16
2022-11-15T23:57:23.186Z,93797.75
2022-11-15T23:59:49.857Z,93803.97
